createdAt,value
2023-02-04T00:00:29.213Z,13.70
2023-02-04T00:02:57.250Z,12.32
2023-02-04T00:05:25.030Z,20.90
2023-02-04T00:07:52.849Z,15.40
2023-02-04T00:10:22.198Z,12.30
2023-02-04T00:15:17.564Z,11.35
2023-02-04T00:17:45.374Z,11.18
2023-02-04T00:20:13.849Z,18.98
2023-02-04T00:22:41.589Z,15.70
2023-02-04T00:25:09.740Z,12.50
2023-02-04T00:27:39.144Z,9.43
2023-02-04T00:30:08.734Z,13.60
2023-02-04T00:32:36.562Z,10.98
2023-02-04T00:35:04.645Z,16.65
2023-02-04T00:37:32.915Z,13.07
2023-02-04T00:40:00.706Z,13.52
2023-02-04T00:42:28.951Z,15.18
2023-02-04T00:45:00.162Z,14.55
2023-02-04T00:47:27.921Z,16.40
2023-02-04T00:52:24.970Z,13.23
2023-02-04T00:54:52.759Z,10.77
2023-02-04T00:57:20.868Z,11.27
2023-02-04T00:59:48.617Z,16.70
2023-02-04T01:02:18.669Z,12.45
2023-02-04T01:04:46.608Z,10.95
2023-02-04T01:07:14.522Z,10.98
2023-02-04T01:09:42.274Z,14.68
2023-02-04T01:12:10.079Z,12.95
2023-02-04T01:14:37.843Z,18.40
2023-02-04T01:17:06.541Z,11.40
2023-02-04T01:19:35.730Z,14.23
2023-02-04T01:22:03.515Z,13.50
2023-02-04T01:24:31.292Z,15.32
2023-02-04T01:27:17.512Z,11.82
2023-02-04T01:29:45.235Z,12.60
2023-02-04T01:32:13.011Z,12.98
2023-02-04T01:34:42.121Z,17.98
2023-02-04T01:37:09.851Z,13.13
2023-02-04T01:39:37.843Z,16.65
2023-02-04T01:42:06.035Z,17.02
2023-02-04T01:44:33.905Z,11.27
2023-02-04T01:47:01.878Z,13.93
2023-02-04T01:49:30.233Z,16.27
2023-02-04T01:51:59.372Z,13.90
2023-02-04T01:54:27.850Z,15.15
2023-02-04T01:56:56.049Z,15.82
2023-02-04T01:59:25.333Z,19.23
2023-02-04T02:01:54.668Z,10.43
2023-02-04T02:06:58.690Z,9.00
2023-02-04T02:09:28.685Z,15.65
2023-02-04T02:11:56.495Z,16.13
2023-02-04T02:14:24.420Z,15.13
2023-02-04T02:16:52.298Z,12.02
2023-02-04T02:19:28.168Z,11.88
2023-02-04T02:22:03.508Z,9.40
2023-02-04T02:24:34.418Z,11.30
2023-02-04T02:27:05.259Z,15.95
2023-02-04T02:29:33.123Z,15.80
2023-02-04T02:32:01.189Z,11.60
2023-02-04T02:34:30.301Z,10.80
2023-02-04T02:36:58.881Z,16.50
2023-02-04T02:39:27.239Z,12.27
2023-02-04T02:41:57.283Z,12.33
2023-02-04T02:44:27.432Z,10.23
2023-02-04T02:46:55.826Z,15.50
2023-02-04T02:49:23.782Z,8.97
2023-02-04T02:51:51.534Z,10.18
2023-02-04T02:54:24.097Z,13.23
2023-02-04T02:56:56.678Z,10.00
2023-02-04T02:59:26.072Z,11.93
2023-02-04T03:01:57.928Z,15.15
2023-02-04T03:04:29.078Z,8.05
2023-02-04T03:06:57.253Z,9.70
2023-02-04T03:09:26.676Z,7.65
2023-02-04T03:14:25.382Z,8.40
2023-02-04T03:16:54.176Z,4.78
2023-02-04T03:19:22.731Z,17.42
2023-02-04T03:21:50.937Z,12.93
2023-02-04T03:24:19.228Z,12.13
2023-02-04T03:26:47.117Z,9.30
2023-02-04T03:29:15.087Z,9.98
2023-02-04T03:31:44.435Z,10.27
2023-02-04T03:36:40.497Z,14.23
2023-02-04T03:39:08.268Z,13.40
2023-02-04T03:41:36.027Z,10.15
2023-02-04T03:44:03.925Z,8.60
2023-02-04T03:46:31.745Z,10.85
2023-02-04T03:49:00.950Z,10.63
2023-02-04T03:51:28.714Z,7.35
2023-02-04T03:53:56.512Z,10.15
2023-02-04T03:56:24.240Z,11.60
2023-02-04T03:58:51.950Z,12.80
2023-02-04T04:01:19.755Z,13.00
2023-02-04T04:03:47.564Z,8.43
2023-02-04T04:06:16.645Z,5.10
2023-02-04T04:08:44.424Z,9.68
2023-02-04T04:11:13.348Z,11.75
2023-02-04T04:13:41.191Z,8.93
2023-02-04T04:16:09.152Z,10.63
2023-02-04T04:18:37.505Z,7.65
2023-02-04T04:21:05.451Z,7.10
2023-02-04T04:23:34.991Z,7.70
2023-02-04T04:26:02.852Z,4.18
2023-02-04T04:28:30.582Z,8.52
2023-02-04T04:30:58.438Z,5.93
2023-02-04T04:33:26.230Z,5.32
2023-02-04T04:35:53.953Z,8.63
2023-02-04T04:38:21.729Z,5.32
2023-02-04T04:40:50.830Z,8.85
2023-02-04T04:43:18.612Z,8.52
2023-02-04T04:45:46.313Z,10.65
2023-02-04T04:48:14.181Z,7.43
2023-02-04T04:50:44.992Z,9.38
2023-02-04T04:53:12.737Z,7.25
2023-02-04T04:55:40.650Z,6.53
2023-02-04T04:58:09.858Z,10.07
2023-02-04T05:00:37.755Z,5.13
2023-02-04T05:03:05.555Z,6.40
2023-02-04T05:05:34.032Z,8.70
2023-02-04T05:08:01.801Z,7.20
2023-02-04T05:10:30.109Z,10.80
2023-02-04T05:12:58.050Z,6.30
2023-02-04T05:15:27.138Z,10.45
2023-02-04T05:17:55.121Z,6.97
2023-02-04T05:20:22.926Z,12.73
2023-02-04T05:22:51.100Z,10.02
2023-02-04T05:25:18.856Z,5.70
2023-02-04T05:27:46.708Z,8.80
2023-02-04T05:30:15.630Z,7.47
2023-02-04T05:32:44.834Z,6.03
2023-02-04T05:35:12.910Z,11.25
2023-02-04T05:37:40.658Z,9.38
2023-02-04T05:40:09.473Z,5.68
2023-02-04T05:42:37.272Z,11.07
2023-02-04T05:45:05.449Z,9.77
2023-02-04T05:47:33.280Z,13.75
2023-02-04T05:50:02.441Z,10.20
2023-02-04T05:52:30.472Z,8.80
2023-02-04T05:54:58.214Z,6.50
2023-02-04T05:57:26.001Z,5.47
2023-02-04T05:59:53.783Z,8.30
2023-02-04T06:02:21.514Z,8.75
2023-02-04T06:04:49.261Z,10.68
2023-02-04T06:07:18.366Z,10.63
2023-02-04T06:09:46.172Z,10.05
2023-02-04T06:12:13.919Z,7.45
2023-02-04T06:14:41.647Z,14.82
2023-02-04T06:17:09.505Z,7.40
2023-02-04T06:19:37.250Z,14.32
2023-02-04T06:22:05.014Z,13.32
2023-02-04T06:24:34.139Z,16.90
2023-02-04T06:27:01.836Z,12.80
2023-02-04T06:29:29.619Z,12.90
2023-02-04T06:31:57.490Z,15.70
2023-02-04T06:34:25.247Z,18.02
2023-02-04T06:36:53.013Z,17.60
2023-02-04T06:39:21.005Z,18.17
2023-02-04T06:41:50.082Z,15.80
2023-02-04T06:44:17.818Z,20.77
2023-02-04T06:46:45.734Z,19.00
2023-02-04T06:49:13.510Z,18.90
2023-02-04T06:51:41.234Z,19.40
2023-02-04T06:54:09.033Z,17.65
2023-02-04T06:56:37.621Z,20.00
2023-02-04T06:59:06.853Z,20.02
2023-02-04T07:01:34.654Z,28.13
2023-02-04T07:04:03.060Z,21.45
2023-02-04T07:06:30.841Z,22.77
2023-02-04T07:08:58.854Z,22.63
2023-02-04T07:11:26.623Z,26.92
2023-02-04T07:13:54.415Z,22.05
2023-02-04T07:16:23.544Z,26.80
2023-02-04T07:18:51.263Z,23.08
2023-02-04T07:21:19.015Z,31.02
2023-02-04T07:23:46.751Z,21.30
2023-02-04T07:26:14.545Z,26.38
2023-02-04T07:28:43.469Z,25.77
2023-02-04T07:31:11.601Z,25.77
2023-02-04T07:33:40.726Z,27.85
2023-02-04T07:36:08.912Z,26.45
2023-02-04T07:38:36.712Z,25.92
2023-02-04T07:41:04.484Z,26.52
2023-02-04T07:43:32.464Z,25.60
2023-02-04T07:46:00.539Z,28.02
2023-02-04T07:48:28.444Z,22.35
2023-02-04T07:50:57.599Z,25.48
2023-02-04T07:53:25.431Z,38.03
2023-02-04T07:55:53.169Z,22.08
2023-02-04T07:58:21.045Z,25.33
2023-02-04T08:00:48.895Z,25.50
2023-02-04T08:03:16.837Z,25.98
2023-02-04T08:05:44.665Z,33.22
2023-02-04T08:08:13.856Z,29.95
2023-02-04T08:10:41.662Z,27.70
2023-02-04T08:13:09.395Z,29.67
2023-02-04T08:15:37.233Z,27.95
2023-02-04T08:18:05.649Z,27.73
2023-02-04T08:20:33.804Z,28.75
2023-02-04T08:23:01.756Z,30.98
2023-02-04T08:25:31.136Z,30.58
2023-02-04T08:30:26.711Z,30.45
2023-02-04T08:32:54.434Z,30.25
2023-02-04T08:35:22.181Z,22.85
2023-02-04T08:37:49.960Z,20.05
2023-02-04T08:40:19.568Z,21.60
2023-02-04T08:42:49.426Z,23.48
2023-02-04T08:45:17.328Z,22.70
2023-02-04T08:47:45.140Z,22.90
2023-02-04T08:50:13.052Z,30.45
2023-02-04T08:52:40.883Z,31.58
2023-02-04T08:55:09.757Z,23.08
2023-02-04T08:57:37.543Z,24.83
2023-02-04T09:00:08.156Z,26.73
2023-02-04T09:02:35.909Z,30.50
2023-02-04T09:05:04.170Z,28.25
2023-02-04T09:07:31.958Z,33.03
2023-02-04T09:09:59.731Z,35.95
2023-02-04T09:12:27.500Z,22.80
2023-02-04T09:14:55.290Z,31.42
2023-02-04T09:17:25.679Z,25.52
2023-02-04T09:19:53.463Z,34.15
2023-02-04T09:22:21.308Z,22.63
2023-02-04T09:24:49.061Z,23.58
2023-02-04T09:27:16.826Z,31.40
2023-02-04T09:29:44.583Z,25.70
2023-02-04T09:32:12.552Z,24.05
2023-02-04T09:34:41.984Z,28.60
2023-02-04T09:39:37.323Z,28.27
2023-02-04T09:42:05.561Z,28.55
2023-02-04T09:44:33.529Z,20.90
2023-02-04T09:47:02.210Z,25.70
2023-02-04T09:49:30.098Z,24.65
2023-02-04T09:51:59.308Z,27.15
2023-02-04T09:56:54.789Z,23.30
2023-02-04T09:59:23.924Z,29.83
2023-02-04T10:01:58.488Z,27.35
2023-02-04T10:04:26.601Z,28.65
2023-02-04T10:06:54.691Z,26.33
2023-02-04T10:09:23.852Z,23.00
2023-02-04T10:11:51.668Z,18.00
2023-02-04T10:14:22.152Z,27.50
2023-02-04T10:16:55.856Z,31.30
2023-02-04T10:19:25.641Z,24.42
2023-02-04T10:21:53.562Z,25.70
2023-02-04T10:24:26.237Z,24.95
2023-02-04T10:26:54.262Z,23.67
2023-02-04T10:29:25.575Z,27.63
2023-02-04T10:31:54.233Z,27.83
2023-02-04T10:34:24.382Z,28.80
2023-02-04T10:36:54.580Z,26.17
2023-02-04T10:39:25.886Z,24.60
2023-02-04T10:41:55.148Z,22.15
2023-02-04T10:44:27.866Z,20.50
2023-02-04T10:47:06.619Z,23.38
2023-02-04T10:49:34.469Z,20.17
2023-02-04T10:52:03.463Z,19.67
2023-02-04T10:54:38.616Z,21.13
2023-02-04T10:57:15.637Z,22.25
2023-02-04T10:59:44.274Z,25.00
2023-02-04T11:02:33.516Z,27.60
2023-02-04T11:07:30.442Z,19.73
2023-02-04T11:09:59.684Z,22.48
2023-02-04T11:12:39.447Z,21.70
2023-02-04T11:15:09.007Z,31.08
2023-02-04T11:17:36.833Z,25.15
2023-02-04T11:20:16.501Z,19.63
2023-02-04T11:22:46.258Z,25.90
2023-02-04T11:25:40.388Z,19.15
2023-02-04T11:28:15.158Z,23.27
2023-02-04T11:30:43.056Z,24.13
2023-02-04T11:33:25.657Z,22.75
2023-02-04T11:36:04.473Z,26.67
2023-02-04T11:38:33.500Z,20.73
2023-02-04T11:41:03.083Z,25.27
2023-02-04T11:43:35.163Z,29.98
2023-02-04T11:46:06.518Z,19.05
2023-02-04T11:48:37.791Z,24.90
2023-02-04T11:51:13.962Z,20.65
2023-02-04T11:53:41.774Z,22.92
2023-02-04T11:56:18.393Z,18.75
2023-02-04T11:58:48.558Z,16.15
2023-02-04T12:01:21.160Z,28.52
2023-02-04T12:03:51.000Z,21.92
2023-02-04T12:06:23.014Z,21.73
2023-02-04T12:08:50.930Z,16.45
2023-02-04T12:11:30.597Z,17.40
2023-02-04T12:14:00.140Z,20.85
2023-02-04T12:16:27.961Z,15.75
2023-02-04T12:18:55.800Z,18.30
2023-02-04T12:21:23.570Z,26.13
2023-02-04T12:23:51.367Z,20.13
2023-02-04T12:26:19.161Z,20.33
2023-02-04T12:28:48.335Z,20.90
2023-02-04T12:33:44.132Z,16.15
2023-02-04T12:36:11.904Z,22.38
2023-02-04T12:38:40.576Z,17.17
2023-02-04T12:41:08.406Z,18.27
2023-02-04T12:43:36.209Z,18.50
2023-02-04T12:46:05.745Z,18.90
2023-02-04T12:48:33.608Z,21.30
2023-02-04T12:51:01.439Z,19.58
2023-02-04T12:53:29.218Z,21.15
2023-02-04T12:55:57.842Z,21.63
2023-02-04T12:58:25.859Z,18.52
2023-02-04T13:00:53.778Z,25.52
2023-02-04T13:03:23.669Z,19.65
2023-02-04T13:05:51.523Z,21.58
2023-02-04T13:08:19.292Z,21.25
2023-02-04T13:10:51.683Z,20.60
2023-02-04T13:13:20.319Z,17.45
2023-02-04T13:15:48.141Z,24.38
2023-02-04T13:18:17.521Z,20.55
2023-02-04T13:20:47.033Z,21.05
2023-02-04T13:23:14.891Z,20.88
2023-02-04T13:25:43.741Z,20.13
2023-02-04T13:28:11.604Z,19.60
2023-02-04T13:30:39.507Z,19.77
2023-02-04T13:33:07.321Z,23.60
2023-02-04T13:35:35.703Z,20.10
2023-02-04T13:38:04.949Z,16.40
2023-02-04T13:40:32.698Z,17.77
2023-02-04T13:43:00.499Z,16.70
2023-02-04T13:45:28.404Z,20.85
2023-02-04T13:47:56.288Z,16.88
2023-02-04T13:50:24.141Z,21.38
2023-02-04T13:52:52.038Z,20.27
2023-02-04T13:55:21.158Z,24.73
2023-02-04T13:57:48.959Z,19.73
2023-02-04T14:00:17.040Z,19.45
2023-02-04T14:02:44.822Z,22.42
2023-02-04T14:05:12.710Z,29.20
2023-02-04T14:07:40.519Z,17.70
2023-02-04T14:10:08.915Z,22.27
2023-02-04T14:12:38.097Z,27.27
2023-02-04T14:15:06.305Z,17.63
2023-02-04T14:17:34.143Z,15.95
2023-02-04T14:20:01.960Z,18.95
2023-02-04T14:22:29.743Z,20.20
2023-02-04T14:24:57.555Z,21.02
2023-02-04T14:27:25.345Z,19.95
2023-02-04T14:29:54.478Z,18.05
2023-02-04T14:32:23.224Z,22.08
2023-02-04T14:34:51.002Z,21.27
2023-02-04T14:37:18.818Z,22.88
2023-02-04T14:39:46.588Z,20.67
2023-02-04T14:42:14.376Z,13.50
2023-02-04T14:44:42.154Z,21.98
2023-02-04T14:47:11.248Z,23.13
2023-02-04T14:49:39.037Z,11.65
2023-02-04T14:52:06.808Z,18.33
2023-02-04T14:54:34.548Z,20.60
2023-02-04T14:57:02.391Z,21.42
2023-02-04T14:59:30.180Z,16.02
2023-02-04T15:01:58.041Z,17.58
2023-02-04T15:04:27.190Z,15.98
2023-02-04T15:06:55.576Z,18.05
2023-02-04T15:09:23.319Z,13.13
2023-02-04T15:11:51.272Z,19.48
2023-02-04T15:14:19.438Z,15.90
2023-02-04T15:16:47.996Z,13.45
2023-02-04T15:19:16.936Z,17.67
2023-02-04T15:21:46.507Z,14.68
2023-02-04T15:24:14.270Z,19.08
2023-02-04T15:26:42.100Z,17.73
2023-02-04T15:29:09.879Z,25.83
2023-02-04T15:31:37.717Z,18.20
2023-02-04T15:34:06.257Z,13.23
2023-02-04T15:36:34.111Z,15.43
2023-02-04T15:39:03.345Z,15.30
2023-02-04T15:41:31.157Z,15.23
2023-02-04T15:43:58.909Z,16.55
2023-02-04T15:46:27.236Z,16.85
2023-02-04T15:48:55.045Z,19.30
2023-02-04T15:51:22.819Z,15.88
2023-02-04T15:53:50.584Z,23.75
2023-02-04T15:56:19.758Z,15.05
2023-02-04T15:58:47.605Z,24.67
2023-02-04T16:01:15.736Z,20.02
2023-02-04T16:03:45.972Z,15.65
2023-02-04T16:06:14.206Z,18.50
2023-02-04T16:08:41.967Z,16.83
2023-02-04T16:11:09.786Z,22.23
2023-02-04T16:13:38.924Z,19.50
2023-02-04T16:16:07.651Z,18.77
2023-02-04T16:18:35.552Z,13.95
2023-02-04T16:21:03.327Z,16.50
2023-02-04T16:23:32.319Z,18.20
2023-02-04T16:26:00.216Z,16.85
2023-02-04T16:28:27.990Z,17.77
2023-02-04T16:30:57.121Z,16.92
2023-02-04T16:33:26.772Z,18.08
2023-02-04T16:36:01.999Z,16.65
2023-02-04T16:38:30.238Z,19.27
2023-02-04T16:40:58.425Z,19.33
2023-02-04T16:43:26.659Z,19.02
2023-02-04T16:45:54.501Z,22.73
2023-02-04T16:48:23.649Z,17.45
2023-02-04T16:50:51.474Z,18.17
2023-02-04T16:53:19.305Z,20.25
2023-02-04T16:55:49.078Z,22.70
2023-02-04T16:58:17.082Z,26.73
2023-02-04T17:00:44.899Z,32.92
2023-02-04T17:03:13.618Z,31.83
2023-02-04T17:05:43.732Z,31.33
2023-02-04T17:08:13.690Z,26.38
2023-02-04T17:10:59.282Z,35.03
2023-02-04T17:13:27.072Z,38.83
2023-02-04T17:16:00.413Z,26.23
2023-02-04T17:18:29.840Z,25.23
2023-02-04T17:21:00.071Z,26.85
2023-02-04T17:23:28.397Z,25.15
2023-02-04T17:25:56.404Z,27.88
2023-02-04T17:28:24.371Z,25.90
2023-02-04T17:30:52.260Z,31.33
2023-02-04T17:33:20.157Z,28.85
2023-02-04T17:35:48.094Z,30.20
2023-02-04T17:38:17.195Z,27.30
2023-02-04T17:40:46.462Z,34.50
2023-02-04T17:43:14.293Z,34.45
2023-02-04T17:45:42.095Z,30.98
2023-02-04T17:48:10.005Z,30.42
2023-02-04T17:50:40.092Z,35.22
2023-02-04T17:53:09.564Z,32.17
2023-02-04T17:55:40.119Z,31.42
2023-02-04T17:58:14.061Z,37.30
2023-02-04T18:00:43.910Z,39.10
2023-02-04T18:03:14.382Z,51.15
2023-02-04T18:05:45.917Z,39.70
2023-02-04T18:08:16.569Z,30.20
2023-02-04T18:10:47.531Z,27.90
2023-02-04T18:13:17.520Z,28.15
2023-02-04T18:15:48.293Z,26.58
2023-02-04T18:18:21.495Z,27.15
2023-02-04T18:20:57.242Z,31.85
2023-02-04T18:23:25.216Z,32.08
2023-02-04T18:25:54.362Z,29.30
2023-02-04T18:28:23.098Z,27.60
2023-02-04T18:30:54.485Z,34.60
2023-02-04T18:33:24.823Z,31.10
2023-02-04T18:35:55.050Z,24.40
2023-02-04T18:38:27.985Z,27.55
2023-02-04T18:41:03.298Z,26.60
2023-02-04T18:43:36.620Z,31.75
2023-02-04T18:46:17.718Z,31.60
2023-02-04T18:49:00.772Z,31.02
2023-02-04T18:51:32.032Z,26.88
2023-02-04T18:54:02.287Z,29.88
2023-02-04T18:56:36.998Z,31.08
2023-02-04T18:59:14.415Z,26.00
2023-02-04T19:01:42.298Z,27.58
2023-02-04T19:04:15.160Z,19.90
2023-02-04T19:06:44.914Z,21.77
2023-02-04T19:09:22.391Z,24.13
2023-02-04T19:11:52.977Z,19.70
2023-02-04T19:14:25.201Z,19.98
2023-02-04T19:16:54.738Z,19.45
2023-02-04T19:19:39.745Z,26.52
2023-02-04T19:22:20.539Z,18.52
2023-02-04T19:24:48.462Z,34.72
2023-02-04T19:27:29.962Z,22.73
2023-02-04T19:30:00.206Z,26.02
2023-02-04T19:32:30.770Z,21.42
2023-02-04T19:35:13.808Z,27.65
2023-02-04T19:37:42.704Z,25.50
2023-02-04T19:40:28.293Z,24.73
2023-02-04T19:43:03.272Z,22.48
2023-02-04T19:45:31.261Z,26.38
2023-02-04T19:47:59.166Z,25.40
2023-02-04T19:50:29.225Z,22.05
2023-02-04T19:53:00.771Z,22.75
2023-02-04T19:55:32.160Z,20.60
2023-02-04T19:58:10.660Z,24.40
2023-02-04T20:00:46.540Z,23.30
2023-02-04T20:03:27.674Z,23.13
2023-02-04T20:05:59.614Z,25.13
2023-02-04T20:08:51.565Z,28.98
2023-02-04T20:11:55.887Z,26.33
2023-02-04T20:14:47.258Z,25.83
2023-02-04T20:17:23.875Z,28.80
2023-02-04T20:19:52.175Z,29.70
2023-02-04T20:22:54.032Z,37.63
2023-02-04T20:25:38.638Z,40.10
2023-02-04T20:28:34.873Z,38.53
2023-02-04T20:31:18.000Z,25.95
2023-02-04T20:33:49.483Z,33.85
2023-02-04T20:36:29.679Z,24.17
2023-02-04T20:39:18.222Z,32.83
2023-02-04T20:41:46.102Z,30.27
2023-02-04T20:44:17.314Z,26.67
2023-02-04T20:46:46.462Z,28.55
2023-02-04T20:49:23.092Z,29.40
2023-02-04T20:51:51.372Z,28.17
2023-02-04T20:54:19.492Z,29.25
2023-02-04T20:56:47.284Z,31.20
2023-02-04T20:59:29.787Z,26.10
2023-02-04T21:01:58.996Z,34.60
2023-02-04T21:04:32.241Z,24.50
2023-02-04T21:07:03.305Z,30.13
2023-02-04T21:09:37.414Z,30.52
2023-02-04T21:12:05.332Z,32.22
2023-02-04T21:14:33.111Z,29.70
2023-02-04T21:17:02.331Z,27.15
2023-02-04T21:19:30.517Z,31.27
2023-02-04T21:21:58.902Z,30.85
2023-02-04T21:24:28.261Z,29.25
2023-02-04T21:29:23.658Z,34.03
2023-02-04T21:31:52.590Z,37.72
2023-02-04T21:34:21.832Z,28.45
2023-02-04T21:36:49.706Z,34.00
2023-02-04T21:39:17.491Z,35.25
2023-02-04T21:41:45.244Z,30.25
2023-02-04T21:44:13.032Z,35.28
2023-02-04T21:46:40.853Z,31.23
2023-02-04T21:49:08.644Z,31.52
2023-02-04T21:51:37.728Z,35.25
2023-02-04T21:54:05.640Z,34.22
2023-02-04T21:56:33.453Z,39.08
2023-02-04T21:59:01.340Z,39.45
2023-02-04T22:01:29.130Z,35.72
2023-02-04T22:03:56.956Z,36.17
2023-02-04T22:06:24.819Z,33.67
2023-02-04T22:08:53.911Z,38.35
2023-02-04T22:11:21.688Z,34.08
2023-02-04T22:14:04.638Z,39.88
2023-02-04T22:16:32.452Z,36.45
2023-02-04T22:19:00.233Z,35.58
2023-02-04T22:21:28.015Z,35.85
2023-02-04T22:23:57.550Z,35.63
2023-02-04T22:26:25.329Z,31.05
2023-02-04T22:28:53.156Z,35.80
2023-02-04T22:31:21.036Z,33.42
2023-02-04T22:33:48.854Z,33.97
2023-02-04T22:36:16.624Z,34.30
2023-02-04T22:38:44.451Z,33.78
2023-02-04T22:41:14.090Z,38.58
2023-02-04T22:43:41.843Z,31.15
2023-02-04T22:46:09.674Z,34.80
2023-02-04T22:48:37.413Z,31.77
2023-02-04T22:51:05.266Z,32.17
2023-02-04T22:53:33.020Z,31.98
2023-02-04T22:56:00.766Z,32.15
2023-02-04T22:58:29.910Z,36.42
2023-02-04T23:00:57.778Z,47.33
2023-02-04T23:03:25.671Z,35.17
2023-02-04T23:05:53.886Z,35.55
2023-02-04T23:08:22.037Z,40.47
2023-02-04T23:10:49.932Z,33.60
2023-02-04T23:13:17.885Z,32.75
2023-02-04T23:15:47.017Z,35.70
2023-02-04T23:18:14.900Z,31.15
2023-02-04T23:20:42.905Z,30.95
2023-02-04T23:23:17.181Z,32.47
2023-02-04T23:25:45.171Z,36.35
2023-02-04T23:28:13.420Z,26.70
2023-02-04T23:30:41.376Z,29.35
2023-02-04T23:33:10.840Z,31.48
2023-02-04T23:35:38.684Z,34.40
2023-02-04T23:38:06.445Z,33.55
2023-02-04T23:40:34.285Z,38.90
2023-02-04T23:43:02.094Z,35.88
2023-02-04T23:45:29.937Z,40.90
2023-02-04T23:47:57.708Z,33.28
2023-02-04T23:50:26.791Z,37.40
2023-02-04T23:52:54.573Z,30.10
2023-02-04T23:55:22.350Z,43.47
2023-02-04T23:57:50.334Z,37.60
